Terminal Aerodrome Forecast
Issued by NWS

Home | Current Version | Previous Version | Text Only | Print | Product List | Glossary On
Versions: 1 2 3 4 5 6 7 8 9 10 11 12 13 14 15 16 17 18 19 20 21
000
FTUS46 KSEW 201100
TAFSEA
TAF
KSEA 201136Z 2012/2118 18006KT P6SM OVC017
      TEMPO 2017/2020 BKN028
     FM202000 22006KT P6SM BKN035
     FM202200 26006KT P6SM SCT050
     FM211100 20006KT P6SM BKN020=

USA.gov is the U.S. government's official web portal to all federal, state and local government web resources and services.